createdAt,value
2019-02-07T00:01:25.046Z,5.97
2019-02-07T00:03:54.826Z,5.97
2019-02-07T00:06:23.964Z,6.05
2019-02-07T00:08:53.648Z,5.97
2019-02-07T00:11:23.426Z,6.04
2019-02-07T00:13:52.684Z,6.03
2019-02-07T00:16:22.395Z,6.04
2019-02-07T00:18:51.526Z,6.01
2019-02-07T00:21:20.679Z,5.96
2019-02-07T00:23:49.904Z,6.04
2019-02-07T00:26:19.072Z,5.98
2019-02-07T00:28:48.508Z,6.00
2019-02-07T00:31:18.015Z,6.01
2019-02-07T00:33:47.153Z,6.06
2019-02-07T00:36:16.346Z,6.04
2019-02-07T00:38:45.500Z,6.04
2019-02-07T00:41:14.665Z,6.01
2019-02-07T00:43:43.954Z,6.00
2019-02-07T00:46:13.427Z,5.99
2019-02-07T00:48:42.629Z,6.01
2019-02-07T00:51:12.028Z,5.92
2019-02-07T00:53:41.184Z,5.94
2019-02-07T00:56:10.911Z,6.00
2019-02-07T00:58:40.138Z,5.92
2019-02-07T01:01:09.485Z,5.97
2019-02-07T01:03:38.686Z,5.93
2019-02-07T01:06:07.951Z,5.98
2019-02-07T01:08:37.235Z,5.99
2019-02-07T01:11:06.423Z,5.95
2019-02-07T01:13:35.726Z,5.92
2019-02-07T01:16:05.309Z,5.91
2019-02-07T01:18:34.517Z,5.94
2019-02-07T01:21:03.685Z,5.95
2019-02-07T01:23:33.135Z,5.98
2019-02-07T01:26:02.292Z,6.00
2019-02-07T01:28:31.583Z,6.00
2019-02-07T01:31:01.910Z,5.98
2019-02-07T01:33:31.075Z,5.94
2019-02-07T01:36:00.253Z,5.93
2019-02-07T01:38:29.408Z,5.93
2019-02-07T01:40:58.608Z,5.93
2019-02-07T01:43:27.760Z,5.93
2019-02-07T01:45:57.235Z,5.93
2019-02-07T01:48:26.712Z,5.95
2019-02-07T01:50:55.866Z,5.96
2019-02-07T01:53:25.030Z,5.96
2019-02-07T01:55:54.227Z,6.01
2019-02-07T01:58:23.405Z,6.03
2019-02-07T02:00:52.758Z,5.99
2019-02-07T02:03:21.946Z,6.02
2019-02-07T02:05:51.144Z,6.03
2019-02-07T02:08:20.444Z,6.04
2019-02-07T02:10:49.589Z,6.06
2019-02-07T02:13:18.856Z,6.04
2019-02-07T02:15:48.331Z,6.04
2019-02-07T02:18:17.487Z,6.06
2019-02-07T02:20:46.784Z,6.10
2019-02-07T02:23:16.024Z,6.10
2019-02-07T02:25:45.194Z,6.06
2019-02-07T02:28:14.382Z,6.08
2019-02-07T02:30:43.927Z,6.04
2019-02-07T02:33:13.263Z,6.01
2019-02-07T02:35:42.842Z,5.99
2019-02-07T02:38:11.980Z,6.05
2019-02-07T02:40:41.209Z,6.05
2019-02-07T02:43:10.425Z,6.10
2019-02-07T02:45:40.187Z,6.08
2019-02-07T02:48:09.431Z,6.09
2019-02-07T02:50:38.625Z,6.15
2019-02-07T02:53:07.804Z,6.13
2019-02-07T02:55:42.329Z,6.18
2019-02-07T02:58:11.701Z,6.19
2019-02-07T03:01:09.613Z,6.22
2019-02-07T03:03:48.172Z,6.24
2019-02-07T03:06:39.356Z,6.26
2019-02-07T03:09:19.635Z,6.26
2019-02-07T03:12:13.522Z,6.25
2019-02-07T03:15:07.885Z,6.24
2019-02-07T03:18:02.265Z,6.26
2019-02-07T03:20:44.516Z,6.28
2019-02-07T03:23:32.646Z,6.29
2019-02-07T03:26:39.013Z,6.31
2019-02-07T03:29:35.911Z,6.24
2019-02-07T03:32:20.725Z,6.23
2019-02-07T03:35:18.304Z,6.33
2019-02-07T03:38:05.057Z,6.29
2019-02-07T03:40:56.483Z,6.27
2019-02-07T03:43:41.018Z,6.29
2019-02-07T03:46:29.775Z,6.27
2019-02-07T03:49:06.757Z,6.26
2019-02-07T03:51:53.799Z,6.28
2019-02-07T03:54:40.918Z,6.27
2019-02-07T03:57:29.049Z,6.23
2019-02-07T04:00:23.435Z,6.26
2019-02-07T04:03:04.613Z,6.26
2019-02-07T04:06:03.030Z,6.29
2019-02-07T04:08:49.853Z,6.30
2019-02-07T04:11:37.002Z,6.28
2019-02-07T04:14:34.821Z,6.28
2019-02-07T04:17:16.992Z,6.29
2019-02-07T04:20:23.064Z,6.29
2019-02-07T04:23:11.442Z,6.32
2019-02-07T04:26:05.517Z,6.30
2019-02-07T04:28:47.656Z,6.30
2019-02-07T04:31:48.264Z,6.27
2019-02-07T04:34:37.833Z,6.30
2019-02-07T04:37:25.324Z,6.31
2019-02-07T04:40:17.384Z,6.29
2019-02-07T04:43:15.439Z,6.28
2019-02-07T04:46:12.429Z,6.28
2019-02-07T04:48:59.040Z,6.31
2019-02-07T04:51:37.135Z,6.31
2019-02-07T04:54:27.616Z,6.32
2019-02-07T04:57:18.748Z,6.30
2019-02-07T05:00:15.762Z,6.31
2019-02-07T05:03:04.143Z,6.31
2019-02-07T05:05:52.235Z,6.30
2019-02-07T05:08:52.833Z,6.31
2019-02-07T05:11:49.414Z,6.29
2019-02-07T05:14:43.657Z,6.31
2019-02-07T05:17:35.040Z,6.31
2019-02-07T05:20:39.252Z,6.33
2019-02-07T05:23:22.381Z,6.35
2019-02-07T05:26:11.819Z,6.32
2019-02-07T05:29:02.976Z,6.37
2019-02-07T05:31:49.806Z,6.34
2019-02-07T05:34:36.311Z,6.36
2019-02-07T05:37:27.304Z,6.35
2019-02-07T05:40:06.758Z,6.39
2019-02-07T05:43:12.792Z,6.39
2019-02-07T05:45:55.487Z,6.39
2019-02-07T05:48:42.413Z,6.38
2019-02-07T05:51:42.660Z,6.40
2019-02-07T05:54:42.660Z,6.40
2019-02-07T05:57:29.582Z,6.41
2019-02-07T06:00:32.855Z,6.40
2019-02-07T06:03:25.219Z,6.42
2019-02-07T06:06:16.202Z,6.42
2019-02-07T06:09:07.381Z,6.45
2019-02-07T06:14:52.270Z,6.51
2019-02-07T06:17:34.183Z,6.54
2019-02-07T06:20:22.309Z,6.53
2019-02-07T06:23:13.413Z,6.63
2019-02-07T06:26:00.017Z,6.63
2019-02-07T06:28:53.282Z,6.68
2019-02-07T06:31:40.662Z,6.68
2019-02-07T06:34:31.771Z,6.70
2019-02-07T06:37:26.041Z,6.74
2019-02-07T06:40:14.161Z,6.74
2019-02-07T06:42:50.532Z,6.74
2019-02-07T06:45:51.136Z,6.77
2019-02-07T06:48:45.074Z,6.70
2019-02-07T06:51:30.626Z,6.77
2019-02-07T06:54:24.888Z,6.83
2019-02-07T06:57:11.544Z,6.84
2019-02-07T07:00:02.565Z,6.85
2019-02-07T07:02:56.665Z,6.87
2019-02-07T07:05:41.421Z,6.88
2019-02-07T07:08:26.099Z,6.96
2019-02-07T07:11:23.328Z,7.04
2019-02-07T07:14:11.444Z,7.12
2019-02-07T07:17:05.700Z,7.10
2019-02-07T07:19:53.787Z,7.07
2019-02-07T07:22:44.707Z,7.10
2019-02-07T07:25:31.466Z,7.07
2019-02-07T07:28:19.499Z,7.04
2019-02-07T07:31:22.963Z,7.01
2019-02-07T07:34:14.032Z,7.00
2019-02-07T07:37:02.176Z,6.95
2019-02-07T07:39:56.271Z,6.91
2019-02-07T07:42:44.678Z,6.94
2019-02-07T07:45:35.080Z,6.93
2019-02-07T07:48:21.671Z,6.93
2019-02-07T07:51:09.802Z,6.94
2019-02-07T07:54:05.206Z,6.93
2019-02-07T07:56:54.746Z,6.92
2019-02-07T07:59:45.886Z,6.93
2019-02-07T08:02:34.060Z,6.91
2019-02-07T08:05:13.388Z,6.96
2019-02-07T08:07:59.859Z,6.99
2019-02-07T08:10:54.088Z,7.01
2019-02-07T08:13:40.930Z,7.03
2019-02-07T08:16:28.141Z,7.04
2019-02-07T08:19:28.860Z,7.03
2019-02-07T08:22:16.140Z,7.04
2019-02-07T08:25:04.281Z,7.08
2019-02-07T08:27:48.448Z,7.12
2019-02-07T08:30:37.516Z,7.16
2019-02-07T08:33:40.891Z,7.19
2019-02-07T08:36:29.012Z,7.22
2019-02-07T08:39:05.115Z,7.25
2019-02-07T08:42:00.032Z,7.33
2019-02-07T08:44:55.194Z,7.35
2019-02-07T08:47:43.460Z,7.34
2019-02-07T08:50:39.312Z,7.40
2019-02-07T08:53:20.980Z,7.46
2019-02-07T08:56:11.827Z,7.47
2019-02-07T08:59:00.421Z,7.51
2019-02-07T09:01:51.382Z,7.59
2019-02-07T09:04:42.555Z,7.67
2019-02-07T09:07:32.162Z,7.73
2019-02-07T09:10:10.769Z,7.73
2019-02-07T09:12:59.029Z,7.70
2019-02-07T09:15:53.083Z,7.67
2019-02-07T09:18:49.685Z,7.72
2019-02-07T09:21:31.213Z,7.73
2019-02-07T09:24:26.263Z,7.74
2019-02-07T09:27:14.857Z,7.82
2019-02-07T09:30:02.971Z,7.94
2019-02-07T09:32:58.379Z,7.92
2019-02-07T09:35:35.993Z,7.87
2019-02-07T09:38:27.328Z,7.88
2019-02-07T09:41:18.553Z,7.82
2019-02-07T09:44:25.162Z,7.85
2019-02-07T09:47:04.036Z,7.82
2019-02-07T09:49:44.087Z,7.85
2019-02-07T09:52:41.119Z,7.89
2019-02-07T09:55:32.809Z,7.95
2019-02-07T09:58:21.053Z,7.98
2019-02-07T10:01:12.189Z,8.03
2019-02-07T10:04:09.393Z,8.13
2019-02-07T10:07:00.468Z,8.22
2019-02-07T10:09:54.355Z,8.29
2019-02-07T10:12:41.036Z,8.43
2019-02-07T10:15:27.831Z,8.53
2019-02-07T10:18:05.760Z,8.65
2019-02-07T10:20:49.249Z,8.73
2019-02-07T10:23:43.316Z,8.76
2019-02-07T10:26:30.084Z,8.71
2019-02-07T10:29:26.939Z,8.66
2019-02-07T10:32:17.826Z,8.56
2019-02-07T10:35:24.224Z,8.51
2019-02-07T10:38:11.130Z,8.45
2019-02-07T10:41:17.603Z,8.35
2019-02-07T10:43:57.192Z,8.50
2019-02-07T10:46:57.536Z,8.50
2019-02-07T10:49:46.883Z,8.49
2019-02-07T10:52:55.007Z,8.56
2019-02-07T10:55:55.343Z,8.66
2019-02-07T10:58:49.510Z,8.73
2019-02-07T11:01:40.495Z,8.80
2019-02-07T11:04:18.005Z,8.81
2019-02-07T11:07:07.444Z,8.74
2019-02-07T11:09:48.647Z,8.75
2019-02-07T11:12:26.845Z,8.76
2019-02-07T11:15:21.248Z,8.77
2019-02-07T11:18:09.399Z,8.74
2019-02-07T11:20:57.521Z,8.85
2019-02-07T11:23:44.272Z,8.87
2019-02-07T11:26:31.175Z,8.96
2019-02-07T11:29:14.414Z,8.97
2019-02-07T11:31:56.197Z,9.19
2019-02-07T11:34:42.883Z,9.22
2019-02-07T11:37:26.886Z,9.27
2019-02-07T11:40:07.039Z,9.18
2019-02-07T11:42:48.984Z,9.05
2019-02-07T11:45:40.079Z,9.11
2019-02-07T11:48:28.142Z,9.18
2019-02-07T11:51:16.252Z,9.22
2019-02-07T11:54:03.961Z,9.28
2019-02-07T11:56:57.619Z,9.19
2019-02-07T11:59:38.296Z,9.25
2019-02-07T12:02:20.068Z,9.24
2019-02-07T12:05:06.718Z,9.32
2019-02-07T12:08:00.644Z,9.44
2019-02-07T12:10:51.983Z,9.68
2019-02-07T12:13:30.730Z,9.83
2019-02-07T12:16:20.104Z,9.57
2019-02-07T12:19:18.021Z,9.64
2019-02-07T12:22:00.667Z,9.60
2019-02-07T12:24:47.640Z,9.78
2019-02-07T12:27:47.813Z,9.86
2019-02-07T12:30:51.676Z,9.81
2019-02-07T12:33:38.668Z,9.76
2019-02-07T12:36:25.002Z,9.73
2019-02-07T12:39:05.615Z,10.15
2019-02-07T12:42:03.501Z,10.09
2019-02-07T12:44:54.803Z,9.92
2019-02-07T12:47:44.511Z,10.18
2019-02-07T12:50:37.393Z,10.38
2019-02-07T12:53:20.903Z,10.14
2019-02-07T12:56:18.560Z,9.98
2019-02-07T12:59:05.913Z,9.82
2019-02-07T13:02:06.001Z,9.60
2019-02-07T13:05:03.053Z,9.46
2019-02-07T13:08:03.205Z,9.45
2019-02-07T13:10:57.180Z,9.36
2019-02-07T13:13:40.787Z,9.35
2019-02-07T13:16:21.348Z,9.37
2019-02-07T13:19:03.771Z,9.36
2019-02-07T13:22:00.721Z,9.49
2019-02-07T13:24:48.835Z,9.75
2019-02-07T13:27:35.673Z,9.74
2019-02-07T13:30:33.123Z,9.65
2019-02-07T13:33:20.364Z,9.53
2019-02-07T13:36:07.184Z,9.49
2019-02-07T13:38:48.288Z,9.55
2019-02-07T13:41:36.430Z,9.56
2019-02-07T13:44:38.017Z,9.52
2019-02-07T13:47:24.580Z,9.53
2019-02-07T13:50:05.860Z,9.61
2019-02-07T13:52:53.949Z,9.60
2019-02-07T13:55:39.110Z,9.57
2019-02-07T13:58:30.325Z,9.59
2019-02-07T14:01:27.037Z,9.64
2019-02-07T14:04:18.220Z,9.79
2019-02-07T14:07:04.825Z,10.29
2019-02-07T14:10:08.092Z,10.10
2019-02-07T14:13:06.255Z,10.05
2019-02-07T14:15:46.185Z,9.79
2019-02-07T14:18:35.560Z,9.63
2019-02-07T14:21:23.138Z,9.52
2019-02-07T14:24:10.127Z,9.47
2019-02-07T14:27:04.820Z,9.38
2019-02-07T14:30:04.766Z,9.32
2019-02-07T14:33:04.955Z,9.54
2019-02-07T14:35:58.896Z,10.27
2019-02-07T14:38:46.995Z,9.94
2019-02-07T14:41:36.249Z,9.74
2019-02-07T14:44:30.660Z,10.47
2019-02-07T14:46:59.911Z,10.97
2019-02-07T14:49:29.283Z,10.99
2019-02-07T14:51:58.918Z,11.07
2019-02-07T14:54:28.201Z,11.31
2019-02-07T14:56:57.415Z,11.25
2019-02-07T14:59:26.617Z,10.84
2019-02-07T15:01:55.860Z,10.29
2019-02-07T15:04:25.015Z,9.95
2019-02-07T15:06:54.700Z,9.81
2019-02-07T15:09:23.921Z,9.77
2019-02-07T15:11:53.097Z,9.60
2019-02-07T15:14:22.291Z,9.48
2019-02-07T15:16:51.500Z,9.44
2019-02-07T15:19:20.735Z,9.37
2019-02-07T15:21:50.162Z,9.41
2019-02-07T15:24:19.337Z,9.44
2019-02-07T15:26:48.683Z,9.33
2019-02-07T15:29:17.855Z,9.31
2019-02-07T15:31:47.056Z,9.31
2019-02-07T15:34:16.485Z,9.29
2019-02-07T15:36:47.845Z,9.29
2019-02-07T15:39:18.053Z,9.29
2019-02-07T15:41:47.460Z,9.24
2019-02-07T15:44:16.841Z,9.24
2019-02-07T15:46:45.996Z,9.17
2019-02-07T15:49:16.442Z,9.16
2019-02-07T15:51:46.065Z,9.19
2019-02-07T15:54:15.291Z,9.12
2019-02-07T15:56:44.732Z,9.03
2019-02-07T15:59:39.008Z,9.01
2019-02-07T16:02:36.382Z,9.05
2019-02-07T16:05:09.000Z,9.01
2019-02-07T16:07:38.409Z,8.93
2019-02-07T16:10:11.452Z,8.89
2019-02-07T16:12:40.837Z,8.89
2019-02-07T16:15:11.097Z,8.89
2019-02-07T16:17:40.279Z,8.79
2019-02-07T16:20:16.189Z,8.75
2019-02-07T16:22:45.781Z,8.64
2019-02-07T16:25:16.026Z,8.72
2019-02-07T16:27:45.295Z,8.68
2019-02-07T16:30:19.154Z,8.62
2019-02-07T16:32:48.473Z,8.56
2019-02-07T16:35:18.163Z,8.59
2019-02-07T16:37:47.339Z,8.66
2019-02-07T16:40:17.406Z,8.58
2019-02-07T16:42:46.647Z,8.67
2019-02-07T16:45:16.873Z,8.64
2019-02-07T16:47:46.095Z,8.56
2019-02-07T16:50:16.694Z,8.59
2019-02-07T16:52:46.207Z,8.62
2019-02-07T16:55:15.562Z,8.62
2019-02-07T16:57:44.791Z,8.65
2019-02-07T17:00:18.086Z,8.55
2019-02-07T17:02:47.471Z,8.57
2019-02-07T17:05:18.056Z,8.59
2019-02-07T17:07:47.217Z,8.51
2019-02-07T17:10:23.735Z,8.49
2019-02-07T17:12:52.896Z,8.45
2019-02-07T17:15:22.036Z,8.53
2019-02-07T17:17:53.245Z,8.42
2019-02-07T17:20:26.499Z,8.44
2019-02-07T17:22:55.705Z,8.50
2019-02-07T17:25:24.897Z,8.55
2019-02-07T17:27:54.127Z,8.51
2019-02-07T17:30:23.543Z,8.50
2019-02-07T17:32:53.199Z,8.49
2019-02-07T17:35:22.553Z,8.51
2019-02-07T17:37:51.905Z,8.48
2019-02-07T17:40:21.608Z,8.47
2019-02-07T17:42:51.087Z,8.38
2019-02-07T17:45:22.468Z,8.35
2019-02-07T17:47:52.010Z,8.33
2019-02-07T17:50:23.960Z,8.29
2019-02-07T17:52:53.199Z,8.21
2019-02-07T17:55:23.026Z,8.25
2019-02-07T17:57:52.371Z,8.23
2019-02-07T18:00:41.507Z,8.26
2019-02-07T18:03:10.695Z,8.24
2019-02-07T18:05:39.967Z,8.20
2019-02-07T18:08:09.903Z,8.18
2019-02-07T18:10:39.675Z,8.22
2019-02-07T18:13:09.434Z,8.25
2019-02-07T18:15:38.864Z,8.24
2019-02-07T18:18:08.523Z,8.17
2019-02-07T18:20:37.743Z,8.13
2019-02-07T18:23:06.992Z,8.19
2019-02-07T18:25:36.390Z,8.14
2019-02-07T18:28:06.234Z,8.13
2019-02-07T18:30:35.583Z,8.11
2019-02-07T18:33:04.750Z,8.13
2019-02-07T18:35:34.047Z,8.11
2019-02-07T18:38:03.451Z,8.08
2019-02-07T18:40:32.855Z,8.09
2019-02-07T18:43:02.677Z,8.04
2019-02-07T18:45:32.345Z,8.04
2019-02-07T18:48:01.999Z,8.12
2019-02-07T18:50:33.503Z,8.05
2019-02-07T18:53:02.678Z,8.06
2019-02-07T18:55:31.866Z,8.09
2019-02-07T18:58:02.260Z,8.07
2019-02-07T19:00:32.733Z,8.07
2019-02-07T19:03:03.207Z,8.11
2019-02-07T19:05:32.383Z,8.15
2019-02-07T19:08:01.607Z,8.12
2019-02-07T19:10:30.889Z,8.14
2019-02-07T19:13:01.439Z,8.06
2019-02-07T19:15:40.212Z,7.80
2019-02-07T19:18:09.544Z,6.79
2019-02-07T19:20:38.798Z,5.80
2019-02-07T19:23:08.704Z,5.22
2019-02-07T19:25:38.331Z,5.09
2019-02-07T19:28:08.173Z,4.99
2019-02-07T19:30:37.494Z,5.00
2019-02-07T19:33:07.028Z,4.97
2019-02-07T19:35:36.850Z,4.99
2019-02-07T19:38:06.446Z,4.92
2019-02-07T19:40:37.144Z,4.73
2019-02-07T19:43:06.580Z,4.69
2019-02-07T19:45:35.898Z,4.67
2019-02-07T19:48:05.474Z,4.68
2019-02-07T19:50:34.874Z,4.70
2019-02-07T19:53:04.246Z,4.77
2019-02-07T19:55:35.939Z,4.77
2019-02-07T19:58:05.603Z,4.80
2019-02-07T20:00:35.047Z,4.83
2019-02-07T20:03:04.415Z,4.88
2019-02-07T20:05:34.778Z,4.92
2019-02-07T20:08:04.595Z,4.76
2019-02-07T20:10:34.469Z,4.86
2019-02-07T20:13:04.032Z,5.00
2019-02-07T20:15:35.893Z,5.10
2019-02-07T20:18:06.393Z,5.15
2019-02-07T20:20:37.288Z,5.28
2019-02-07T20:23:06.545Z,5.39
2019-02-07T20:25:36.463Z,5.43
2019-02-07T20:28:06.040Z,5.51
2019-02-07T20:30:37.378Z,5.78
2019-02-07T20:33:08.471Z,5.72
2019-02-07T20:35:37.805Z,5.62
2019-02-07T20:38:08.507Z,5.66
2019-02-07T20:40:38.579Z,5.76
2019-02-07T20:43:08.033Z,5.75
2019-02-07T20:45:37.325Z,5.74
2019-02-07T20:48:08.627Z,5.74
2019-02-07T20:50:38.071Z,5.75
2019-02-07T20:53:10.476Z,5.77
2019-02-07T20:55:39.714Z,5.77
2019-02-07T20:58:09.521Z,5.78
2019-02-07T21:00:39.293Z,5.90
2019-02-07T21:03:09.521Z,5.89
2019-02-07T21:05:39.344Z,5.96
2019-02-07T21:08:08.717Z,5.92
2019-02-07T21:10:38.273Z,6.00
2019-02-07T21:13:08.046Z,6.13
2019-02-07T21:15:37.284Z,6.20
2019-02-07T21:18:06.630Z,6.26
2019-02-07T21:20:36.801Z,6.31
2019-02-07T21:23:06.527Z,6.33
2019-02-07T21:25:46.103Z,6.28
2019-02-07T21:28:15.547Z,6.24
2019-02-07T21:30:44.922Z,6.19
2019-02-07T21:33:14.396Z,6.18
2019-02-07T21:35:43.745Z,6.25
2019-02-07T21:38:13.093Z,6.27
2019-02-07T21:40:42.333Z,6.13
2019-02-07T21:43:13.075Z,6.22
2019-02-07T21:45:42.378Z,6.23
2019-02-07T21:48:12.172Z,6.28
2019-02-07T21:50:41.858Z,6.24
2019-02-07T21:53:11.038Z,6.18
2019-02-07T21:55:40.360Z,6.11
2019-02-07T21:58:09.811Z,6.10
2019-02-07T22:00:40.867Z,6.20
2019-02-07T22:03:11.814Z,6.19
2019-02-07T22:05:41.398Z,6.24
2019-02-07T22:08:10.553Z,6.19
2019-02-07T22:10:39.811Z,6.20
2019-02-07T22:13:09.706Z,6.23
2019-02-07T22:15:38.874Z,6.23
2019-02-07T22:18:09.433Z,6.24
2019-02-07T22:20:38.647Z,6.12
2019-02-07T22:23:07.874Z,6.12
2019-02-07T22:25:37.056Z,6.13
2019-02-07T22:28:06.974Z,6.20
2019-02-07T22:30:36.568Z,6.23
2019-02-07T22:33:06.525Z,6.32
2019-02-07T22:35:35.913Z,6.47
2019-02-07T22:38:06.251Z,6.49
2019-02-07T22:40:35.465Z,6.50
2019-02-07T22:43:04.796Z,6.51
2019-02-07T22:45:33.998Z,6.52
2019-02-07T22:48:03.235Z,6.61
2019-02-07T22:50:32.475Z,6.64
2019-02-07T22:53:02.170Z,6.62
2019-02-07T22:55:31.425Z,6.61
2019-02-07T22:58:00.629Z,6.57
2019-02-07T23:01:26.370Z,6.64
2019-02-07T23:03:57.769Z,6.58
2019-02-07T23:06:26.991Z,6.52
2019-02-07T23:08:56.254Z,6.52
2019-02-07T23:11:26.094Z,6.49
2019-02-07T23:13:55.326Z,6.50
2019-02-07T23:16:24.513Z,6.47
2019-02-07T23:18:54.972Z,6.48
2019-02-07T23:21:24.332Z,6.49
2019-02-07T23:23:53.519Z,6.42
2019-02-07T23:26:22.682Z,6.39
2019-02-07T23:28:52.164Z,6.40
2019-02-07T23:31:21.348Z,6.51
2019-02-07T23:33:50.535Z,6.58
2019-02-07T23:36:19.893Z,6.58
2019-02-07T23:38:49.101Z,6.48
2019-02-07T23:41:18.277Z,6.38
2019-02-07T23:43:47.503Z,6.27
2019-02-07T23:46:16.714Z,6.24
2019-02-07T23:48:46.141Z,6.13
2019-02-07T23:51:15.326Z,6.05
2019-02-07T23:53:44.611Z,6.09
2019-02-07T23:56:13.742Z,6.10
2019-02-07T23:58:42.916Z,6.17
